createdAt,value
2019-03-31T00:01:32.822Z,10.80
2019-03-31T00:04:03.031Z,10.70
2019-03-31T00:06:33.538Z,10.60
2019-03-31T00:09:05.959Z,10.60
2019-03-31T00:11:36.165Z,10.70
2019-03-31T00:14:06.406Z,10.70
2019-03-31T00:16:36.770Z,10.60
2019-03-31T00:19:07.242Z,10.60
2019-03-31T00:21:37.859Z,10.60
2019-03-31T00:24:08.063Z,10.60
2019-03-31T00:26:38.239Z,10.70
2019-03-31T00:29:08.443Z,10.60
2019-03-31T00:31:38.622Z,10.60
2019-03-31T00:34:09.829Z,10.50
2019-03-31T00:36:40.092Z,10.40
2019-03-31T00:39:10.407Z,10.40
2019-03-31T00:41:40.643Z,10.20
2019-03-31T00:44:10.894Z,10.20
2019-03-31T00:46:41.046Z,10.00
2019-03-31T00:49:11.412Z,10.00
2019-03-31T00:51:41.683Z,9.90
2019-03-31T00:54:11.858Z,9.90
2019-03-31T00:56:42.106Z,9.80
2019-03-31T00:59:12.293Z,9.90
2019-03-31T01:01:48.750Z,9.80
2019-03-31T01:04:22.913Z,9.80
2019-03-31T01:06:54.988Z,9.70
2019-03-31T01:09:30.714Z,9.70
2019-03-31T01:12:02.338Z,9.70
2019-03-31T01:14:32.701Z,9.60
2019-03-31T01:17:03.218Z,9.70
2019-03-31T01:19:33.613Z,9.70
2019-03-31T01:22:04.039Z,9.70
2019-03-31T01:24:34.300Z,9.60
2019-03-31T01:27:06.204Z,9.50
2019-03-31T01:29:36.391Z,9.50
2019-03-31T01:32:06.518Z,9.40
2019-03-31T01:34:36.844Z,9.40
2019-03-31T01:37:07.208Z,9.50
2019-03-31T01:39:37.556Z,9.50
2019-03-31T01:42:07.726Z,9.60
2019-03-31T01:44:37.903Z,9.60
2019-03-31T01:47:08.706Z,9.70
2019-03-31T01:49:38.948Z,9.80
2019-03-31T01:52:09.111Z,9.80
2019-03-31T01:54:39.392Z,9.90
2019-03-31T01:57:09.690Z,9.90
2019-03-31T01:59:39.874Z,9.90
2019-03-31T02:02:14.100Z,9.90
2019-03-31T02:04:44.256Z,9.90
2019-03-31T02:07:14.413Z,9.80
2019-03-31T02:09:44.612Z,9.70
2019-03-31T02:12:14.853Z,9.70
2019-03-31T02:14:45.343Z,9.70
2019-03-31T02:17:15.433Z,9.60
2019-03-31T02:19:45.553Z,9.60
2019-03-31T02:22:15.710Z,9.50
2019-03-31T02:24:45.867Z,9.50
2019-03-31T02:27:16.079Z,9.40
2019-03-31T02:29:46.247Z,9.30
2019-03-31T02:32:24.048Z,9.20
2019-03-31T02:34:48.260Z,9.10
2019-03-31T02:37:18.766Z,9.00
2019-03-31T02:39:48.972Z,8.90
2019-03-31T02:42:19.313Z,8.80
2019-03-31T02:44:49.515Z,8.70
2019-03-31T02:47:19.778Z,8.60
2019-03-31T02:49:49.966Z,8.50
2019-03-31T02:52:20.148Z,8.50
2019-03-31T02:54:50.344Z,8.60
2019-03-31T02:57:22.122Z,8.60
2019-03-31T02:59:54.000Z,8.60
2019-03-31T03:02:40.749Z,8.50
2019-03-31T03:05:16.913Z,8.50
2019-03-31T03:07:32.620Z,8.40
2019-03-31T03:10:04.772Z,8.30
2019-03-31T03:12:38.218Z,8.20
2019-03-31T03:15:08.884Z,8.10
2019-03-31T03:17:39.027Z,8.10
2019-03-31T03:20:09.172Z,8.00
2019-03-31T03:22:39.351Z,7.90
2019-03-31T03:25:09.445Z,7.90
2019-03-31T03:27:39.687Z,7.80
2019-03-31T03:30:09.871Z,7.70
2019-03-31T03:32:40.042Z,7.70
2019-03-31T03:35:10.264Z,7.60
2019-03-31T03:37:40.448Z,7.60
2019-03-31T03:40:10.720Z,7.60
2019-03-31T03:42:40.803Z,7.50
2019-03-31T03:45:11.144Z,7.40
2019-03-31T03:47:41.285Z,7.40
2019-03-31T03:50:11.612Z,7.30
2019-03-31T03:52:41.820Z,7.30
2019-03-31T03:55:12.042Z,7.20
2019-03-31T03:57:42.199Z,7.30
2019-03-31T04:00:12.424Z,7.30
2019-03-31T04:02:42.539Z,7.30
2019-03-31T04:05:12.836Z,7.30
2019-03-31T04:07:43.042Z,7.20
2019-03-31T04:10:49.064Z,7.10
2019-03-31T04:13:19.555Z,7.00
2019-03-31T04:15:49.760Z,6.90
2019-03-31T04:18:19.970Z,6.70
2019-03-31T04:20:50.105Z,6.70
2019-03-31T04:23:20.306Z,6.60
2019-03-31T04:25:50.536Z,6.70
2019-03-31T04:28:20.750Z,6.80
2019-03-31T04:30:51.016Z,6.90
2019-03-31T04:33:21.141Z,6.90
2019-03-31T04:35:51.361Z,7.00
2019-03-31T04:38:21.633Z,7.10
2019-03-31T04:40:51.838Z,7.10
2019-03-31T04:43:22.060Z,7.20
2019-03-31T04:45:52.201Z,7.30
2019-03-31T04:48:22.371Z,7.50
2019-03-31T04:50:52.550Z,7.50
2019-03-31T04:53:22.771Z,7.50
2019-03-31T04:55:52.977Z,7.50
2019-03-31T04:58:23.163Z,7.50
2019-03-31T05:00:53.351Z,7.50
2019-03-31T05:03:23.532Z,7.50
2019-03-31T05:05:53.871Z,7.50
2019-03-31T05:08:24.020Z,7.50
2019-03-31T05:10:54.336Z,7.50
2019-03-31T05:13:24.500Z,7.60
2019-03-31T05:15:54.682Z,7.60
2019-03-31T05:18:24.885Z,7.60
2019-03-31T05:20:55.038Z,7.60
2019-03-31T05:23:25.192Z,7.70
2019-03-31T05:25:55.332Z,7.70
2019-03-31T05:28:25.714Z,7.70
2019-03-31T05:30:55.928Z,7.60
2019-03-31T05:33:26.071Z,7.60
2019-03-31T05:35:56.291Z,7.60
2019-03-31T05:38:26.545Z,7.60
2019-03-31T05:40:56.686Z,7.60
2019-03-31T05:43:26.965Z,7.60
2019-03-31T05:45:57.179Z,7.60
2019-03-31T05:48:27.745Z,7.50
2019-03-31T05:50:58.010Z,7.40
2019-03-31T05:53:28.278Z,7.40
2019-03-31T05:55:58.550Z,7.50
2019-03-31T05:58:28.765Z,7.60
2019-03-31T06:00:58.937Z,7.60
2019-03-31T06:03:29.199Z,7.60
2019-03-31T06:05:59.538Z,7.70
2019-03-31T06:08:30.002Z,7.70
2019-03-31T06:11:00.194Z,7.70
2019-03-31T06:13:30.449Z,7.60
2019-03-31T06:16:00.649Z,7.60
2019-03-31T06:18:30.921Z,7.70
2019-03-31T06:21:01.153Z,7.80
2019-03-31T06:23:31.310Z,7.80
2019-03-31T06:26:01.570Z,8.00
2019-03-31T06:28:31.786Z,8.00
2019-03-31T06:31:02.136Z,8.00
2019-03-31T06:33:32.435Z,8.00
2019-03-31T06:36:02.710Z,8.10
2019-03-31T06:38:32.937Z,8.10
2019-03-31T06:41:05.720Z,8.00
2019-03-31T06:43:36.031Z,8.00
2019-03-31T06:46:06.216Z,8.00
2019-03-31T06:48:36.357Z,8.00
2019-03-31T06:51:06.532Z,8.00
2019-03-31T06:53:36.674Z,8.20
2019-03-31T06:56:06.851Z,8.30
2019-03-31T06:58:36.966Z,8.40
2019-03-31T07:01:07.341Z,8.50
2019-03-31T07:03:37.516Z,8.60
2019-03-31T07:06:08.039Z,8.70
2019-03-31T07:08:38.329Z,8.60
2019-03-31T07:11:08.643Z,8.50
2019-03-31T07:13:38.913Z,8.60
2019-03-31T07:16:09.131Z,8.60
2019-03-31T07:18:39.365Z,8.60
2019-03-31T07:21:09.569Z,8.50
2019-03-31T07:23:39.738Z,8.70
2019-03-31T07:26:10.066Z,8.90
2019-03-31T07:28:40.250Z,9.20
2019-03-31T07:31:10.454Z,9.20
2019-03-31T07:33:40.717Z,9.20
2019-03-31T07:36:10.986Z,9.10
2019-03-31T07:38:41.360Z,9.00
2019-03-31T07:41:12.847Z,9.10
2019-03-31T07:43:43.428Z,9.20
2019-03-31T07:46:13.566Z,9.20
2019-03-31T07:48:43.753Z,9.40
2019-03-31T07:51:13.998Z,9.40
2019-03-31T07:53:44.253Z,9.40
2019-03-31T07:56:16.111Z,9.20
2019-03-31T07:58:46.673Z,9.20
2019-03-31T08:01:16.950Z,9.20
2019-03-31T08:03:47.210Z,9.10
2019-03-31T08:06:17.663Z,9.10
2019-03-31T08:08:47.932Z,9.30
2019-03-31T08:11:20.673Z,9.40
2019-03-31T08:13:50.900Z,9.40
2019-03-31T08:16:21.112Z,9.30
2019-03-31T08:18:51.305Z,9.40
2019-03-31T08:21:21.507Z,9.60
2019-03-31T08:23:51.740Z,10.00
2019-03-31T08:26:22.033Z,10.40
2019-03-31T08:28:53.495Z,10.50
2019-03-31T08:31:32.267Z,10.50
2019-03-31T08:34:02.506Z,10.30
2019-03-31T08:36:35.288Z,10.20
2019-03-31T08:39:06.928Z,10.00
2019-03-31T08:41:37.901Z,9.90
2019-03-31T08:44:08.858Z,9.90
2019-03-31T08:46:39.245Z,9.90
2019-03-31T08:49:09.446Z,10.00
2019-03-31T08:51:39.800Z,10.00
2019-03-31T08:54:10.093Z,10.30
2019-03-31T08:56:40.323Z,10.50
2019-03-31T08:59:10.468Z,10.40
2019-03-31T09:01:40.727Z,10.40
2019-03-31T09:04:11.088Z,10.30
2019-03-31T09:06:41.239Z,10.20
2019-03-31T09:09:11.572Z,10.20
2019-03-31T09:11:41.820Z,10.00
2019-03-31T09:14:12.085Z,10.10
2019-03-31T09:16:42.273Z,10.00
2019-03-31T09:19:12.493Z,9.80
2019-03-31T09:21:42.770Z,9.40
2019-03-31T09:24:12.939Z,9.20
2019-03-31T09:26:43.107Z,9.10
2019-03-31T09:29:13.321Z,9.10
2019-03-31T09:31:43.635Z,9.00
2019-03-31T09:34:13.765Z,9.10
2019-03-31T09:36:44.058Z,9.10
2019-03-31T09:39:14.206Z,9.10
2019-03-31T09:41:44.554Z,9.10
2019-03-31T09:44:14.732Z,9.10
2019-03-31T09:46:44.941Z,9.00
2019-03-31T09:49:15.160Z,9.00
2019-03-31T09:51:45.300Z,9.10
2019-03-31T09:54:15.587Z,9.20
2019-03-31T09:56:45.834Z,9.30
2019-03-31T09:59:16.166Z,9.40
2019-03-31T10:01:46.703Z,9.60
2019-03-31T10:04:17.327Z,9.70
2019-03-31T10:06:48.131Z,9.90
2019-03-31T10:09:18.582Z,9.90
2019-03-31T10:11:49.261Z,9.70
2019-03-31T10:14:19.458Z,9.60
2019-03-31T10:16:49.898Z,9.70
2019-03-31T10:19:20.170Z,10.10
2019-03-31T10:21:50.617Z,10.50
2019-03-31T10:24:20.887Z,11.10
2019-03-31T10:26:52.149Z,11.30
2019-03-31T10:29:22.316Z,11.10
2019-03-31T10:31:52.432Z,11.20
2019-03-31T10:34:22.563Z,11.20
2019-03-31T10:36:52.752Z,11.40
2019-03-31T10:39:23.066Z,11.60
2019-03-31T10:41:53.345Z,11.70
2019-03-31T10:44:23.481Z,11.50
2019-03-31T10:46:53.647Z,11.20
2019-03-31T10:49:23.932Z,11.40
2019-03-31T10:51:54.101Z,11.50
2019-03-31T10:54:24.209Z,11.70
2019-03-31T10:56:54.429Z,11.90
2019-03-31T10:59:24.637Z,12.10
2019-03-31T11:01:55.088Z,12.20
2019-03-31T11:04:25.285Z,12.60
2019-03-31T11:06:59.564Z,12.70
2019-03-31T11:09:27.302Z,13.00
2019-03-31T11:11:57.462Z,13.40
2019-03-31T11:14:27.614Z,13.60
2019-03-31T11:16:57.881Z,13.30
2019-03-31T11:19:28.037Z,12.50
2019-03-31T11:22:12.466Z,12.10
2019-03-31T11:24:42.636Z,12.10
2019-03-31T11:27:12.901Z,12.00
2019-03-31T11:29:43.077Z,11.80
2019-03-31T11:32:13.284Z,11.70
2019-03-31T11:34:43.428Z,11.60
2019-03-31T11:37:14.740Z,11.60
2019-03-31T11:39:44.857Z,11.60
2019-03-31T11:42:15.092Z,11.40
2019-03-31T11:44:45.720Z,11.30
2019-03-31T11:47:15.944Z,11.40
2019-03-31T11:49:46.063Z,11.70
2019-03-31T11:52:16.520Z,11.80
2019-03-31T11:54:46.687Z,11.60
2019-03-31T11:57:17.690Z,11.50
2019-03-31T11:59:49.701Z,11.30
2019-03-31T12:02:26.984Z,11.30
2019-03-31T12:04:51.629Z,11.60
2019-03-31T12:07:28.346Z,11.90
2019-03-31T12:09:53.773Z,12.20
2019-03-31T12:12:24.161Z,12.50
2019-03-31T12:15:00.700Z,12.90
2019-03-31T12:17:26.180Z,12.70
2019-03-31T12:19:56.410Z,12.50
2019-03-31T12:22:26.561Z,12.60
2019-03-31T12:24:56.752Z,12.90
2019-03-31T12:27:26.891Z,13.20
2019-03-31T12:29:57.036Z,13.20
2019-03-31T12:32:27.305Z,13.30
2019-03-31T12:34:57.867Z,13.30
2019-03-31T12:37:41.355Z,13.60
2019-03-31T12:39:59.714Z,13.70
2019-03-31T12:42:29.922Z,13.50
2019-03-31T12:45:00.405Z,13.40
2019-03-31T12:47:30.507Z,13.30
2019-03-31T12:50:00.716Z,13.30
2019-03-31T12:52:30.930Z,13.10
2019-03-31T12:55:01.049Z,12.80
2019-03-31T12:57:31.556Z,12.70
2019-03-31T13:00:01.705Z,12.60
2019-03-31T13:02:31.847Z,12.60
2019-03-31T13:05:02.110Z,12.60
2019-03-31T13:07:32.278Z,12.60
2019-03-31T13:10:02.529Z,12.50
2019-03-31T13:12:34.940Z,12.10
2019-03-31T13:15:05.697Z,12.10
2019-03-31T13:17:35.883Z,12.20
2019-03-31T13:20:06.728Z,12.20
2019-03-31T13:22:36.893Z,12.20
2019-03-31T13:25:07.335Z,12.30
2019-03-31T13:27:37.560Z,12.20
2019-03-31T13:30:07.867Z,12.30
2019-03-31T13:32:38.275Z,12.50
2019-03-31T13:35:08.911Z,12.60
2019-03-31T13:37:39.166Z,12.70
2019-03-31T13:40:09.604Z,12.60
2019-03-31T13:42:39.962Z,12.40
2019-03-31T13:45:10.758Z,12.30
2019-03-31T13:47:41.025Z,12.30
2019-03-31T13:50:12.913Z,12.40
2019-03-31T13:52:43.242Z,12.40
2019-03-31T13:55:13.671Z,12.50
2019-03-31T13:57:45.069Z,12.60
2019-03-31T14:00:25.489Z,12.60
2019-03-31T14:03:10.154Z,12.80
2019-03-31T14:05:40.925Z,12.90
2019-03-31T14:08:25.115Z,13.10
2019-03-31T14:10:45.903Z,13.00
2019-03-31T14:13:16.290Z,13.20
2019-03-31T14:15:46.653Z,13.20
2019-03-31T14:18:16.890Z,13.10
2019-03-31T14:20:47.096Z,12.90
2019-03-31T14:23:17.305Z,12.80
2019-03-31T14:25:47.482Z,12.70
2019-03-31T14:28:17.703Z,12.60
2019-03-31T14:30:47.957Z,12.50
2019-03-31T14:33:18.239Z,12.30
2019-03-31T14:35:48.629Z,12.40
2019-03-31T14:38:18.826Z,12.30
2019-03-31T14:40:49.098Z,12.40
2019-03-31T14:43:19.457Z,12.40
2019-03-31T14:45:50.314Z,12.40
2019-03-31T14:48:20.605Z,12.50
2019-03-31T14:50:50.830Z,12.50
2019-03-31T14:53:22.648Z,12.50
2019-03-31T14:55:52.902Z,12.50
2019-03-31T14:58:23.277Z,12.30
2019-03-31T15:00:53.698Z,12.10
2019-03-31T15:03:23.843Z,12.10
2019-03-31T15:05:54.085Z,12.00
2019-03-31T15:08:24.311Z,12.00
2019-03-31T15:10:54.863Z,12.00
2019-03-31T15:13:25.186Z,12.00
2019-03-31T15:15:55.407Z,12.10
2019-03-31T15:18:25.630Z,12.10
2019-03-31T15:20:55.857Z,12.10
2019-03-31T15:23:29.529Z,12.00
2019-03-31T15:25:58.249Z,12.00
2019-03-31T15:28:28.623Z,11.80
2019-03-31T15:30:58.929Z,11.70
2019-03-31T15:33:29.156Z,11.60
2019-03-31T15:35:59.498Z,11.40
2019-03-31T15:38:29.740Z,11.30
2019-03-31T15:41:00.022Z,11.20
2019-03-31T15:43:30.221Z,11.10
2019-03-31T15:46:00.355Z,11.00
2019-03-31T15:48:30.710Z,11.10
2019-03-31T15:51:00.910Z,11.00
2019-03-31T15:53:31.088Z,11.00
2019-03-31T15:56:01.213Z,11.00
2019-03-31T15:58:31.356Z,11.10
2019-03-31T16:01:01.538Z,11.20
2019-03-31T16:03:33.349Z,11.20
2019-03-31T16:06:03.729Z,11.20
2019-03-31T16:08:33.604Z,11.20
2019-03-31T16:11:04.910Z,11.20
2019-03-31T16:13:34.785Z,11.20
2019-03-31T16:16:04.504Z,11.10
2019-03-31T16:18:34.197Z,11.10
2019-03-31T16:21:03.888Z,11.00
2019-03-31T16:23:33.428Z,10.90
2019-03-31T16:26:03.409Z,10.90
2019-03-31T16:28:33.005Z,10.80
2019-03-31T16:31:02.694Z,10.70
2019-03-31T16:33:32.443Z,10.60
2019-03-31T16:36:02.042Z,10.60
2019-03-31T16:38:31.697Z,10.60
2019-03-31T16:41:01.551Z,10.50
2019-03-31T16:43:31.199Z,10.50
2019-03-31T16:46:01.043Z,10.40
2019-03-31T16:48:30.697Z,10.30
2019-03-31T16:51:00.299Z,10.30
2019-03-31T16:53:29.883Z,10.30
2019-03-31T16:55:59.669Z,10.80
2019-03-31T16:58:29.471Z,11.40
2019-03-31T17:00:59.417Z,11.60
2019-03-31T17:03:29.152Z,11.70
2019-03-31T17:05:58.779Z,11.60
2019-03-31T17:08:28.538Z,11.40
2019-03-31T17:10:58.159Z,10.90
2019-03-31T17:13:27.778Z,10.60
2019-03-31T17:15:57.791Z,10.50
2019-03-31T17:18:27.438Z,10.40
2019-03-31T17:20:57.356Z,10.20
2019-03-31T17:23:26.991Z,10.00
2019-03-31T17:25:56.794Z,9.80
2019-03-31T17:28:26.523Z,9.60
2019-03-31T17:30:56.153Z,9.50
2019-03-31T17:33:25.775Z,9.30
2019-03-31T17:35:55.452Z,9.20
2019-03-31T17:38:25.159Z,9.10
2019-03-31T17:40:55.275Z,9.00
2019-03-31T17:43:25.734Z,8.80
2019-03-31T17:45:55.515Z,8.80
2019-03-31T17:48:25.169Z,8.70
2019-03-31T17:50:54.955Z,8.60
2019-03-31T17:53:24.642Z,8.60
2019-03-31T17:55:54.293Z,8.50
2019-03-31T17:58:24.040Z,8.40
2019-03-31T18:00:53.917Z,8.30
2019-03-31T18:03:23.608Z,8.30
2019-03-31T18:05:53.196Z,8.20
2019-03-31T18:08:22.930Z,8.20
2019-03-31T18:10:52.695Z,8.10
2019-03-31T18:13:22.963Z,8.10
2019-03-31T18:15:52.657Z,8.00
2019-03-31T18:18:22.475Z,8.00
2019-03-31T18:20:52.144Z,7.90
2019-03-31T18:23:22.299Z,7.90
2019-03-31T18:25:51.874Z,7.80
2019-03-31T18:28:21.663Z,7.80
2019-03-31T18:30:51.371Z,7.70
2019-03-31T18:33:21.116Z,7.60
2019-03-31T18:35:50.818Z,7.50
2019-03-31T18:38:20.770Z,7.50
2019-03-31T18:40:51.546Z,7.40
2019-03-31T18:43:21.516Z,7.40
2019-03-31T18:45:51.274Z,7.30
2019-03-31T18:48:21.330Z,7.20
2019-03-31T18:50:51.162Z,7.10
2019-03-31T18:53:48.840Z,7.10
2019-03-31T18:56:47.789Z,7.00
2019-03-31T18:59:33.896Z,6.80
2019-03-31T19:02:28.604Z,6.80
2019-03-31T19:05:24.492Z,6.80
2019-03-31T19:08:08.974Z,6.70
2019-03-31T19:11:00.984Z,6.60
2019-03-31T19:13:55.724Z,6.60
2019-03-31T19:16:46.303Z,6.50
2019-03-31T19:19:27.251Z,6.40
2019-03-31T19:22:07.364Z,6.30
2019-03-31T19:25:04.633Z,6.30
2019-03-31T19:28:12.083Z,6.20
2019-03-31T19:31:01.501Z,6.20
2019-03-31T19:33:46.477Z,6.10
2019-03-31T19:36:42.186Z,6.10
2019-03-31T19:39:23.026Z,6.00
2019-03-31T19:42:23.837Z,6.00
2019-03-31T19:45:10.793Z,5.90
2019-03-31T19:47:55.428Z,5.90
2019-03-31T19:50:44.720Z,5.90
2019-03-31T19:53:34.103Z,5.80
2019-03-31T19:56:37.006Z,5.70
2019-03-31T19:59:26.412Z,5.70
2019-03-31T20:02:19.640Z,5.60
2019-03-31T20:05:09.752Z,5.60
2019-03-31T20:14:48.072Z,5.40
2019-03-31T20:18:10.705Z,5.30
2019-03-31T20:26:57.597Z,5.10
2019-03-31T20:30:30.689Z,5.10
2019-03-31T21:00:02.047Z,4.60
2019-03-31T21:02:32.672Z,4.50
2019-03-31T21:05:03.579Z,4.40
2019-03-31T21:07:36.260Z,4.40
2019-03-31T21:10:08.029Z,4.40
2019-03-31T21:12:38.003Z,4.40
2019-03-31T21:15:09.213Z,4.40
2019-03-31T21:17:40.118Z,4.30
2019-03-31T21:20:10.318Z,4.30
2019-03-31T21:22:42.303Z,4.20
2019-03-31T21:25:15.089Z,4.20
2019-03-31T21:27:45.236Z,4.20
2019-03-31T21:30:16.936Z,4.10
2019-03-31T21:32:46.858Z,4.10
2019-03-31T21:35:16.776Z,4.10
2019-03-31T21:37:46.756Z,4.00
2019-03-31T21:40:16.729Z,3.90
2019-03-31T21:42:46.687Z,3.90
2019-03-31T21:45:23.333Z,3.80
2019-03-31T21:47:53.974Z,3.80
2019-03-31T21:50:23.847Z,3.80
2019-03-31T21:52:57.468Z,3.70
2019-03-31T21:55:28.267Z,3.60
2019-03-31T21:57:59.658Z,3.70
2019-03-31T22:00:47.200Z,3.70
2019-03-31T22:03:17.568Z,3.70
2019-03-31T22:05:47.283Z,3.60
2019-03-31T22:08:17.809Z,3.60
2019-03-31T22:10:48.366Z,3.50
2019-03-31T22:13:18.510Z,3.50
2019-03-31T22:15:48.656Z,3.50
2019-03-31T22:18:25.908Z,3.50
2019-03-31T22:20:55.599Z,3.50
2019-03-31T22:23:25.258Z,3.40
2019-03-31T22:25:54.837Z,3.40
2019-03-31T22:28:24.419Z,3.40
2019-03-31T22:30:54.030Z,3.30
2019-03-31T22:33:23.754Z,3.30
2019-03-31T22:36:10.691Z,3.30
2019-03-31T22:38:40.401Z,3.30
2019-03-31T22:41:10.007Z,3.10
2019-03-31T22:43:39.659Z,3.10
2019-03-31T22:46:09.359Z,3.00
2019-03-31T22:48:39.017Z,2.90
2019-03-31T22:51:08.716Z,2.80
2019-03-31T22:53:38.397Z,2.70
2019-03-31T22:56:08.007Z,2.80
2019-03-31T22:58:37.612Z,2.80
2019-03-31T23:01:07.202Z,2.80
2019-03-31T23:03:37.023Z,2.80
2019-03-31T23:06:06.544Z,2.80
2019-03-31T23:08:36.144Z,2.90
2019-03-31T23:11:06.638Z,2.90
2019-03-31T23:13:36.429Z,2.90
2019-03-31T23:16:05.998Z,2.90
2019-03-31T23:18:35.687Z,2.80
2019-03-31T23:21:05.386Z,2.80
2019-03-31T23:23:35.007Z,2.70
2019-03-31T23:26:04.605Z,2.60
2019-03-31T23:28:35.776Z,2.60
2019-03-31T23:31:05.323Z,2.60
2019-03-31T23:33:34.891Z,2.50
2019-03-31T23:36:04.537Z,2.50
2019-03-31T23:38:34.284Z,2.40
2019-03-31T23:41:04.207Z,2.40
2019-03-31T23:43:33.819Z,2.30
2019-03-31T23:46:03.374Z,2.20
2019-03-31T23:48:33.022Z,2.10
2019-03-31T23:51:02.599Z,2.20
2019-03-31T23:53:32.140Z,2.30
2019-03-31T23:56:01.716Z,2.30
2019-03-31T23:58:31.279Z,2.20
